sensor_id;sensor_type;location;lat;lon;timestamp;pressure;altitude;pressure_sealevel;temperature;humidity
23953;BME280;12163;49.316;6.092;2023-04-27T00:00:41;99553.28;;;9.54;59.89
23953;BME280;12163;49.316;6.092;2023-04-27T00:03:08;99548.97;;;9.53;59.62
23953;BME280;12163;49.316;6.092;2023-04-27T00:05:36;99555.72;;;9.56;59.37
23953;BME280;12163;49.316;6.092;2023-04-27T00:08:05;99549.25;;;9.57;58.98
23953;BME280;12163;49.316;6.092;2023-04-27T00:10:33;99560.84;;;9.57;59.07
23953;BME280;12163;49.316;6.092;2023-04-27T00:13:00;99552.75;;;9.57;58.59
23953;BME280;12163;49.316;6.092;2023-04-27T00:15:27;99559.75;;;9.58;57.86
23953;BME280;12163;49.316;6.092;2023-04-27T00:17:54;99558.38;;;9.61;57.85
23953;BME280;12163;49.316;6.092;2023-04-27T00:20:20;99560.81;;;9.62;57.97
23953;BME280;12163;49.316;6.092;2023-04-27T00:22:47;99552.44;;;9.64;57.85
23953;BME280;12163;49.316;6.092;2023-04-27T00:25:14;99554.84;;;9.65;57.74
23953;BME280;12163;49.316;6.092;2023-04-27T00:27:40;99544.63;;;9.62;56.97
23953;BME280;12163;49.316;6.092;2023-04-27T00:30:07;99552.19;;;9.60;57.22
23953;BME280;12163;49.316;6.092;2023-04-27T00:32:34;99553.25;;;9.64;57.35
23953;BME280;12163;49.316;6.092;2023-04-27T00:35:01;99552.69;;;9.67;57.02
23953;BME280;12163;49.316;6.092;2023-04-27T00:37:27;99551.91;;;9.67;56.06
23953;BME280;12163;49.316;6.092;2023-04-27T00:39:54;99552.16;;;9.65;55.62
23953;BME280;12163;49.316;6.092;2023-04-27T00:42:21;99551.06;;;9.66;56.01
23953;BME280;12163;49.316;6.092;2023-04-27T00:44:50;99551.06;;;9.66;55.73
23953;BME280;12163;49.316;6.092;2023-04-27T00:47:16;99549.19;;;9.67;56.34
23953;BME280;12163;49.316;6.092;2023-04-27T00:49:43;99550.50;;;9.69;55.82
23953;BME280;12163;49.316;6.092;2023-04-27T00:52:10;99543.78;;;9.72;55.32
23953;BME280;12163;49.316;6.092;2023-04-27T00:54:37;99545.94;;;9.70;55.11
23953;BME280;12163;49.316;6.092;2023-04-27T00:57:04;99547.03;;;9.69;55.48
23953;BME280;12163;49.316;6.092;2023-04-27T00:59:31;99536.53;;;9.67;55.51
23953;BME280;12163;49.316;6.092;2023-04-27T01:01:58;99543.25;;;9.65;55.71
23953;BME280;12163;49.316;6.092;2023-04-27T01:04:25;99543.81;;;9.62;55.66
23953;BME280;12163;49.316;6.092;2023-04-27T01:06:52;99545.72;;;9.61;55.73
23953;BME280;12163;49.316;6.092;2023-04-27T01:09:19;99540.84;;;9.63;55.73
23953;BME280;12163;49.316;6.092;2023-04-27T01:11:46;99540.28;;;9.66;55.33
23953;BME280;12163;49.316;6.092;2023-04-27T01:14:13;99544.06;;;9.65;55.73
23953;BME280;12163;49.316;6.092;2023-04-27T01:16:39;99541.13;;;9.67;55.33
23953;BME280;12163;49.316;6.092;2023-04-27T01:19:06;99540.81;;;9.68;55.67
23953;BME280;12163;49.316;6.092;2023-04-27T01:21:33;99539.50;;;9.66;55.19
23953;BME280;12163;49.316;6.092;2023-04-27T01:23:59;99545.72;;;9.61;55.29
23953;BME280;12163;49.316;6.092;2023-04-27T01:26:26;99539.00;;;9.59;55.13
23953;BME280;12163;49.316;6.092;2023-04-27T01:28:53;99534.16;;;9.56;55.14
23953;BME280;12163;49.316;6.092;2023-04-27T01:31:19;99542.00;;;9.52;54.44
23953;BME280;12163;49.316;6.092;2023-04-27T01:33:46;99535.00;;;9.51;55.08
23953;BME280;12163;49.316;6.092;2023-04-27T01:36:12;99540.91;;;9.53;54.99
23953;BME280;12163;49.316;6.092;2023-04-27T01:38:39;99535.28;;;9.50;54.91
23953;BME280;12163;49.316;6.092;2023-04-27T01:41:06;99541.47;;;9.50;54.91
23953;BME280;12163;49.316;6.092;2023-04-27T01:43:35;99537.69;;;9.51;55.34
23953;BME280;12163;49.316;6.092;2023-04-27T01:46:12;99540.13;;;9.53;54.83
23953;BME280;12163;49.316;6.092;2023-04-27T01:48:40;99537.69;;;9.51;54.76
23953;BME280;12163;49.316;6.092;2023-04-27T01:51:06;99532.59;;;9.50;54.85
23953;BME280;12163;49.316;6.092;2023-04-27T01:53:33;99534.47;;;9.49;55.29
23953;BME280;12163;49.316;6.092;2023-04-27T01:56:00;99525.34;;;9.45;55.75
23953;BME280;12163;49.316;6.092;2023-04-27T01:58:26;99526.47;;;9.39;55.83
23953;BME280;12163;49.316;6.092;2023-04-27T02:00:53;99536.72;;;9.37;55.96
23953;BME280;12163;49.316;6.092;2023-04-27T02:03:20;99528.88;;;9.36;55.97
23953;BME280;12163;49.316;6.092;2023-04-27T02:05:47;99536.75;;;9.32;56.41
23953;BME280;12163;49.316;6.092;2023-04-27T02:08:13;99544.25;;;9.30;56.21
23953;BME280;12163;49.316;6.092;2023-04-27T02:10:40;99541.56;;;9.30;56.86
23953;BME280;12163;49.316;6.092;2023-04-27T02:13:07;99539.97;;;9.29;57.16
23953;BME280;12163;49.316;6.092;2023-04-27T02:15:35;99545.91;;;9.26;57.26
23953;BME280;12163;49.316;6.092;2023-04-27T02:18:02;99551.06;;;9.23;57.23
23953;BME280;12163;49.316;6.092;2023-04-27T02:20:32;99542.97;;;9.18;56.99
23953;BME280;12163;49.316;6.092;2023-04-27T02:22:58;99547.31;;;9.14;56.35
23953;BME280;12163;49.316;6.092;2023-04-27T02:25:26;99541.69;;;9.10;56.42
23953;BME280;12163;49.316;6.092;2023-04-27T02:27:53;99555.13;;;9.10;56.04
23953;BME280;12163;49.316;6.092;2023-04-27T02:30:21;99547.31;;;9.09;55.99
23953;BME280;12163;49.316;6.092;2023-04-27T02:32:48;99548.97;;;9.05;55.93
23953;BME280;12163;49.316;6.092;2023-04-27T02:35:15;99551.69;;;9.00;56.15
23953;BME280;12163;49.316;6.092;2023-04-27T02:37:41;99544.94;;;8.97;56.12
23953;BME280;12163;49.316;6.092;2023-04-27T02:40:08;99553.56;;;8.94;55.92
23953;BME280;12163;49.316;6.092;2023-04-27T02:42:35;99551.69;;;8.90;56.80
23953;BME280;12163;49.316;6.092;2023-04-27T02:45:07;99557.88;;;8.85;56.63
23953;BME280;12163;49.316;6.092;2023-04-27T02:47:34;99552.53;;;8.80;57.09
23953;BME280;12163;49.316;6.092;2023-04-27T02:50:01;99547.44;;;8.74;56.76
23953;BME280;12163;49.316;6.092;2023-04-27T02:52:27;99550.97;;;8.69;57.23
23953;BME280;12163;49.316;6.092;2023-04-27T02:54:54;99550.41;;;8.62;57.63
23953;BME280;12163;49.316;6.092;2023-04-27T02:57:21;99552.59;;;8.55;57.87
23953;BME280;12163;49.316;6.092;2023-04-27T02:59:47;99556.38;;;8.49;58.15
23953;BME280;12163;49.316;6.092;2023-04-27T03:02:14;99551.81;;;8.40;58.52
23953;BME280;12163;49.316;6.092;2023-04-27T03:04:41;99549.41;;;8.33;58.68
23953;BME280;12163;49.316;6.092;2023-04-27T03:07:08;99556.13;;;8.26;58.79
23953;BME280;12163;49.316;6.092;2023-04-27T03:09:35;99556.88;;;8.17;58.89
23953;BME280;12163;49.316;6.092;2023-04-27T03:12:02;99555.81;;;8.13;59.52
23953;BME280;12163;49.316;6.092;2023-04-27T03:14:29;99556.09;;;8.06;59.25
23953;BME280;12163;49.316;6.092;2023-04-27T03:16:56;99561.22;;;8.03;59.68
23953;BME280;12163;49.316;6.092;2023-04-27T03:19:22;99559.59;;;8.02;59.93
23953;BME280;12163;49.316;6.092;2023-04-27T03:21:49;99552.59;;;7.96;59.88
23953;BME280;12163;49.316;6.092;2023-04-27T03:24:16;99548.28;;;7.90;59.84
23953;BME280;12163;49.316;6.092;2023-04-27T03:26:42;99548.00;;;7.86;59.89
23953;BME280;12163;49.316;6.092;2023-04-27T03:29:09;99553.91;;;7.83;59.95
23953;BME280;12163;49.316;6.092;2023-04-27T03:31:36;99544.00;;;7.79;60.24
23953;BME280;12163;49.316;6.092;2023-04-27T03:34:02;99556.84;;;7.77;60.60
23953;BME280;12163;49.316;6.092;2023-04-27T03:36:29;99550.41;;;7.73;60.26
23953;BME280;12163;49.316;6.092;2023-04-27T03:38:57;99555.25;;;7.71;60.80
23953;BME280;12163;49.316;6.092;2023-04-27T03:41:23;99547.72;;;7.73;60.72
23953;BME280;12163;49.316;6.092;2023-04-27T03:43:50;99559.28;;;7.73;60.75
23953;BME280;12163;49.316;6.092;2023-04-27T03:46:18;99562.22;;;7.72;60.84
23953;BME280;12163;49.316;6.092;2023-04-27T03:48:45;99562.22;;;7.77;60.90
23953;BME280;12163;49.316;6.092;2023-04-27T03:51:12;99560.09;;;7.79;60.55
23953;BME280;12163;49.316;6.092;2023-04-27T03:53:39;99562.78;;;7.84;60.84
23953;BME280;12163;49.316;6.092;2023-04-27T03:56:06;99560.38;;;7.87;60.70
23953;BME280;12163;49.316;6.092;2023-04-27T03:58:32;99555.25;;;7.96;60.34
23953;BME280;12163;49.316;6.092;2023-04-27T04:00:59;99561.22;;;8.03;60.10
23953;BME280;12163;49.316;6.092;2023-04-27T04:03:26;99552.59;;;8.11;59.90
23953;BME280;12163;49.316;6.092;2023-04-27T04:05:53;99548.81;;;8.17;60.12
23953;BME280;12163;49.316;6.092;2023-04-27T04:08:20;99563.09;;;8.22;59.51
23953;BME280;12163;49.316;6.092;2023-04-27T04:10:46;99559.88;;;8.30;59.12
23953;BME280;12163;49.316;6.092;2023-04-27T04:13:13;99558.28;;;8.34;58.80
23953;BME280;12163;49.316;6.092;2023-04-27T04:15:39;99554.75;;;8.38;58.70
23953;BME280;12163;49.316;6.092;2023-04-27T04:18:06;99557.47;;;8.43;58.65
23953;BME280;12163;49.316;6.092;2023-04-27T04:20:34;99556.91;;;8.46;58.42
23953;BME280;12163;49.316;6.092;2023-04-27T04:23:01;99562.53;;;8.50;58.56
23953;BME280;12163;49.316;6.092;2023-04-27T04:25:27;99552.59;;;8.50;58.92
23953;BME280;12163;49.316;6.092;2023-04-27T04:27:54;99555.56;;;8.49;58.65
23953;BME280;12163;49.316;6.092;2023-04-27T04:30:21;99560.13;;;8.48;58.29
23953;BME280;12163;49.316;6.092;2023-04-27T04:32:48;99561.47;;;8.46;58.56
23953;BME280;12163;49.316;6.092;2023-04-27T04:35:15;99561.19;;;8.42;58.71
23953;BME280;12163;49.316;6.092;2023-04-27T04:37:45;99563.34;;;8.40;58.13
23953;BME280;12163;49.316;6.092;2023-04-27T04:40:12;99567.66;;;8.36;58.26
23953;BME280;12163;49.316;6.092;2023-04-27T04:42:39;99576.03;;;8.35;58.38
23953;BME280;12163;49.316;6.092;2023-04-27T04:45:06;99574.13;;;8.35;58.05
23953;BME280;12163;49.316;6.092;2023-04-27T04:47:33;99575.19;;;8.39;58.38
23953;BME280;12163;49.316;6.092;2023-04-27T04:50:00;99574.38;;;8.44;58.17
23953;BME280;12163;49.316;6.092;2023-04-27T04:52:27;99578.44;;;8.46;57.66
23953;BME280;12163;49.316;6.092;2023-04-27T04:54:54;99584.00;;;8.90;59.48
23953;BME280;12163;49.316;6.092;2023-04-27T04:57:20;99582.44;;;9.47;59.67
23953;BME280;12163;49.316;6.092;2023-04-27T04:59:47;99584.06;;;9.92;58.91
23953;BME280;12163;49.316;6.092;2023-04-27T05:02:14;99583.63;;;10.18;57.13
23953;BME280;12163;49.316;6.092;2023-04-27T05:04:40;99574.31;;;10.34;57.26
23953;BME280;12163;49.316;6.092;2023-04-27T05:07:07;99579.09;;;10.47;56.51
23953;BME280;12163;49.316;6.092;2023-04-27T05:09:34;99578.91;;;10.67;55.90
23953;BME280;12163;49.316;6.092;2023-04-27T05:12:00;99580.91;;;10.80;54.43
23953;BME280;12163;49.316;6.092;2023-04-27T05:14:27;99573.00;;;10.60;53.61
23953;BME280;12163;49.316;6.092;2023-04-27T05:16:53;99582.72;;;10.32;53.70
23953;BME280;12163;49.316;6.092;2023-04-27T05:19:20;99582.06;;;10.12;53.92
23953;BME280;12163;49.316;6.092;2023-04-27T05:21:47;99579.19;;;9.94;53.51
23953;BME280;12163;49.316;6.092;2023-04-27T05:24:14;99583.03;;;9.83;54.33
23953;BME280;12163;49.316;6.092;2023-04-27T05:26:42;99584.44;;;9.70;54.37
23953;BME280;12163;49.316;6.092;2023-04-27T05:29:08;99585.63;;;9.59;54.16
23953;BME280;12163;49.316;6.092;2023-04-27T05:31:35;99587.28;;;9.45;53.78
23953;BME280;12163;49.316;6.092;2023-04-27T05:34:02;99591.66;;;9.31;54.09
23953;BME280;12163;49.316;6.092;2023-04-27T05:36:28;99591.16;;;9.24;54.36
23953;BME280;12163;49.316;6.092;2023-04-27T05:38:55;99585.75;;;9.24;54.45
23953;BME280;12163;49.316;6.092;2023-04-27T05:41:22;99582.53;;;9.22;55.13
23953;BME280;12163;49.316;6.092;2023-04-27T05:43:49;99588.75;;;9.23;54.82
23953;BME280;12163;49.316;6.092;2023-04-27T05:46:15;99587.38;;;9.25;54.75
23953;BME280;12163;49.316;6.092;2023-04-27T05:48:42;99582.81;;;9.26;54.42
23953;BME280;12163;49.316;6.092;2023-04-27T05:51:09;99588.44;;;9.29;54.57
23953;BME280;12163;49.316;6.092;2023-04-27T05:53:35;99597.03;;;9.31;54.11
23953;BME280;12163;49.316;6.092;2023-04-27T05:56:02;99595.94;;;9.37;54.45
23953;BME280;12163;49.316;6.092;2023-04-27T05:58:32;99600.16;;;9.53;54.70
23953;BME280;12163;49.316;6.092;2023-04-27T06:00:59;99614.69;;;9.62;54.36
23953;BME280;12163;49.316;6.092;2023-04-27T06:03:26;99604.97;;;9.66;53.75
23953;BME280;12163;49.316;6.092;2023-04-27T06:05:59;99610.84;;;9.73;54.05
23953;BME280;12163;49.316;6.092;2023-04-27T06:08:26;99610.81;;;9.83;53.78
23953;BME280;12163;49.316;6.092;2023-04-27T06:10:53;99613.97;;;9.90;53.62
23953;BME280;12163;49.316;6.092;2023-04-27T06:13:20;99617.97;;;9.98;53.64
23953;BME280;12163;49.316;6.092;2023-04-27T06:15:46;99612.31;;;10.04;53.22
23953;BME280;12163;49.316;6.092;2023-04-27T06:18:13;99611.72;;;10.12;53.18
23953;BME280;12163;49.316;6.092;2023-04-27T06:20:40;99612.75;;;10.16;52.36
23953;BME280;12163;49.316;6.092;2023-04-27T06:23:08;99612.44;;;10.22;52.75
23953;BME280;12163;49.316;6.092;2023-04-27T06:25:35;99613.75;;;10.30;52.91
23953;BME280;12163;49.316;6.092;2023-04-27T06:28:04;99613.69;;;10.35;52.51
23953;BME280;12163;49.316;6.092;2023-04-27T06:30:30;99614.16;;;10.42;52.03
23953;BME280;12163;49.316;6.092;2023-04-27T06:32:57;99609.53;;;10.47;52.00
23953;BME280;12163;49.316;6.092;2023-04-27T06:35:24;99606.78;;;10.52;51.45
23953;BME280;12163;49.316;6.092;2023-04-27T06:37:50;99608.66;;;10.57;51.66
23953;BME280;12163;49.316;6.092;2023-04-27T06:40:17;99603.25;;;10.57;51.41
23953;BME280;12163;49.316;6.092;2023-04-27T06:42:43;99609.50;;;10.52;51.68
23953;BME280;12163;49.316;6.092;2023-04-27T06:45:10;99612.19;;;10.52;51.87
23953;BME280;12163;49.316;6.092;2023-04-27T06:47:37;99614.06;;;10.57;51.78
23953;BME280;12163;49.316;6.092;2023-04-27T06:50:04;99611.03;;;10.63;51.87
23953;BME280;12163;49.316;6.092;2023-04-27T06:52:31;99615.06;;;10.66;51.78
23953;BME280;12163;49.316;6.092;2023-04-27T06:54:58;99612.84;;;10.73;51.58
23953;BME280;12163;49.316;6.092;2023-04-27T06:57:25;99608.41;;;10.82;51.11
23953;BME280;12163;49.316;6.092;2023-04-27T06:59:53;99612.69;;;10.88;51.03
23953;BME280;12163;49.316;6.092;2023-04-27T07:02:19;99622.56;;;10.97;51.18
23953;BME280;12163;49.316;6.092;2023-04-27T07:04:48;99621.06;;;11.10;50.95
23953;BME280;12163;49.316;6.092;2023-04-27T07:07:15;99620.41;;;11.23;51.21
23953;BME280;12163;49.316;6.092;2023-04-27T07:09:42;99625.03;;;11.22;50.13
23953;BME280;12163;49.316;6.092;2023-04-27T07:12:09;99625.03;;;11.22;50.12
23953;BME280;12163;49.316;6.092;2023-04-27T07:14:35;99623.03;;;11.28;49.91
23953;BME280;12163;49.316;6.092;2023-04-27T07:17:02;99624.03;;;11.37;49.74
23953;BME280;12163;49.316;6.092;2023-04-27T07:19:29;99617.41;;;11.48;50.08
23953;BME280;12163;49.316;6.092;2023-04-27T07:21:55;99633.53;;;11.58;49.89
23953;BME280;12163;49.316;6.092;2023-04-27T07:24:22;99613.38;;;11.69;49.92
23953;BME280;12163;49.316;6.092;2023-04-27T07:26:48;99621.38;;;11.78;50.07
23953;BME280;12163;49.316;6.092;2023-04-27T07:29:15;99622.31;;;11.87;49.34
23953;BME280;12163;49.316;6.092;2023-04-27T07:31:52;99610.78;;;12.00;49.70
23953;BME280;12163;49.316;6.092;2023-04-27T07:34:18;99616.03;;;12.10;49.59
23953;BME280;12163;49.316;6.092;2023-04-27T07:36:45;99612.09;;;12.21;49.22
23953;BME280;12163;49.316;6.092;2023-04-27T07:39:12;99606.38;;;12.23;49.34
23953;BME280;12163;49.316;6.092;2023-04-27T07:41:39;99606.59;;;12.26;49.08
23953;BME280;12163;49.316;6.092;2023-04-27T07:44:06;99615.72;;;12.30;48.79
23953;BME280;12163;49.316;6.092;2023-04-27T07:46:33;99614.13;;;12.29;47.74
23953;BME280;12163;49.316;6.092;2023-04-27T07:48:59;99601.38;;;12.30;48.49
23953;BME280;12163;49.316;6.092;2023-04-27T07:51:26;99606.28;;;12.28;47.93
23953;BME280;12163;49.316;6.092;2023-04-27T07:53:55;99602.88;;;12.22;48.41
23953;BME280;12163;49.316;6.092;2023-04-27T07:56:22;99606.69;;;12.21;48.82
23953;BME280;12163;49.316;6.092;2023-04-27T07:58:49;99601.28;;;12.21;48.66
23953;BME280;12163;49.316;6.092;2023-04-27T08:01:16;99597.25;;;12.19;48.14
23953;BME280;12163;49.316;6.092;2023-04-27T08:03:46;99603.03;;;12.12;48.13
23953;BME280;12163;49.316;6.092;2023-04-27T08:06:13;99595.41;;;12.14;49.47
23953;BME280;12163;49.316;6.092;2023-04-27T08:08:40;99599.06;;;12.23;49.28
23953;BME280;12163;49.316;6.092;2023-04-27T08:11:10;99599.50;;;12.30;48.86
23953;BME280;12163;49.316;6.092;2023-04-27T08:13:37;99606.94;;;12.38;48.69
23953;BME280;12163;49.316;6.092;2023-04-27T08:16:04;99598.56;;;12.53;49.46
23953;BME280;12163;49.316;6.092;2023-04-27T08:18:31;99600.44;;;12.71;49.30
23953;BME280;12163;49.316;6.092;2023-04-27T08:20:57;99590.41;;;12.85;48.81
23953;BME280;12163;49.316;6.092;2023-04-27T08:23:28;99597.38;;;12.91;47.62
23953;BME280;12163;49.316;6.092;2023-04-27T08:25:55;99595.59;;;13.00;47.73
23953;BME280;12163;49.316;6.092;2023-04-27T08:28:21;99594.81;;;13.13;48.01
23953;BME280;12163;49.316;6.092;2023-04-27T08:30:48;99586.75;;;13.08;47.64
23953;BME280;12163;49.316;6.092;2023-04-27T08:33:15;99582.88;;;13.14;47.31
23953;BME280;12163;49.316;6.092;2023-04-27T08:35:42;99588.19;;;13.19;47.49
23953;BME280;12163;49.316;6.092;2023-04-27T08:38:08;99580.66;;;13.16;47.05
23953;BME280;12163;49.316;6.092;2023-04-27T08:40:35;99573.75;;;13.10;47.51
23953;BME280;12163;49.316;6.092;2023-04-27T08:43:01;99576.63;;;13.14;47.10
23953;BME280;12163;49.316;6.092;2023-04-27T08:45:28;99575.84;;;13.13;47.25
23953;BME280;12163;49.316;6.092;2023-04-27T08:47:54;99574.84;;;13.23;47.99
23953;BME280;12163;49.316;6.092;2023-04-27T08:50:22;99568.81;;;13.39;47.23
23953;BME280;12163;49.316;6.092;2023-04-27T08:52:49;99574.91;;;13.58;47.17
23953;BME280;12163;49.316;6.092;2023-04-27T08:55:17;99564.22;;;13.75;46.36
23953;BME280;12163;49.316;6.092;2023-04-27T08:58:10;99571.31;;;13.84;45.83
23953;BME280;12163;49.316;6.092;2023-04-27T09:00:41;99580.34;;;13.93;46.51
23953;BME280;12163;49.316;6.092;2023-04-27T09:03:21;99573.66;;;14.13;45.93
23953;BME280;12163;49.316;6.092;2023-04-27T09:05:48;99565.91;;;14.42;44.98
23953;BME280;12163;49.316;6.092;2023-04-27T09:08:49;99565.59;;;14.65;44.80
23953;BME280;12163;49.316;6.092;2023-04-27T09:13:54;99558.38;;;14.91;44.56
23953;BME280;12163;49.316;6.092;2023-04-27T09:16:25;99566.28;;;15.10;44.40
23953;BME280;12163;49.316;6.092;2023-04-27T09:18:54;99555.97;;;15.28;44.52
23953;BME280;12163;49.316;6.092;2023-04-27T09:21:26;99551.38;;;15.37;43.20
23953;BME280;12163;49.316;6.092;2023-04-27T09:23:54;99559.88;;;15.44;43.12
23953;BME280;12163;49.316;6.092;2023-04-27T09:26:25;99561.66;;;15.57;42.62
23953;BME280;12163;49.316;6.092;2023-04-27T09:28:54;99564.56;;;15.69;42.75
23953;BME280;12163;49.316;6.092;2023-04-27T09:31:34;99566.50;;;15.77;42.46
23953;BME280;12163;49.316;6.092;2023-04-27T09:34:01;99568.25;;;15.73;41.97
23953;BME280;12163;49.316;6.092;2023-04-27T09:36:29;99563.91;;;15.72;41.52
23953;BME280;12163;49.316;6.092;2023-04-27T09:38:56;99579.78;;;15.87;42.38
23953;BME280;12163;49.316;6.092;2023-04-27T09:41:24;99575.00;;;16.10;42.28
23953;BME280;12163;49.316;6.092;2023-04-27T09:43:51;99566.69;;;16.40;41.55
23953;BME280;12163;49.316;6.092;2023-04-27T09:46:23;99561.19;;;16.66;40.84
23953;BME280;12163;49.316;6.092;2023-04-27T09:48:50;99556.94;;;16.93;39.76
23953;BME280;12163;49.316;6.092;2023-04-27T09:51:17;99560.06;;;17.12;39.52
23953;BME280;12163;49.316;6.092;2023-04-27T09:53:50;99552.78;;;17.25;38.87
23953;BME280;12163;49.316;6.092;2023-04-27T09:56:52;99550.88;;;17.34;39.24
23953;BME280;12163;49.316;6.092;2023-04-27T10:02:10;99552.13;;;17.28;38.85
23953;BME280;12163;49.316;6.092;2023-04-27T10:05:40;99549.75;;;17.35;39.14
23953;BME280;12163;49.316;6.092;2023-04-27T10:07:40;99544.00;;;17.57;37.96
23953;BME280;12163;49.316;6.092;2023-04-27T10:10:15;99550.41;;;17.81;38.12
23953;BME280;12163;49.316;6.092;2023-04-27T10:12:56;99543.06;;;17.94;37.30
23953;BME280;12163;49.316;6.092;2023-04-27T10:15:27;99539.63;;;17.85;37.37
23953;BME280;12163;49.316;6.092;2023-04-27T10:17:55;99533.28;;;17.72;37.66
23953;BME280;12163;49.316;6.092;2023-04-27T10:20:29;99530.72;;;17.76;37.46
23953;BME280;12163;49.316;6.092;2023-04-27T10:22:57;99540.97;;;17.79;38.35
23953;BME280;12163;49.316;6.092;2023-04-27T10:25:26;99535.81;;;17.77;37.94
23953;BME280;12163;49.316;6.092;2023-04-27T10:28:00;99535.09;;;17.68;37.15
23953;BME280;12163;49.316;6.092;2023-04-27T10:30:34;99522.31;;;17.81;38.08
23953;BME280;12163;49.316;6.092;2023-04-27T10:33:09;99523.56;;;17.83;37.49
23953;BME280;12163;49.316;6.092;2023-04-27T10:35:41;99524.63;;;17.91;36.98
23953;BME280;12163;49.316;6.092;2023-04-27T10:38:16;99512.31;;;17.85;37.01
23953;BME280;12163;49.316;6.092;2023-04-27T10:40:44;99512.03;;;17.98;37.90
23953;BME280;12163;49.316;6.092;2023-04-27T10:43:16;99511.50;;;18.05;37.93
23953;BME280;12163;49.316;6.092;2023-04-27T10:45:43;99507.66;;;18.06;36.75
23953;BME280;12163;49.316;6.092;2023-04-27T10:48:13;99501.97;;;18.11;37.14
23953;BME280;12163;49.316;6.092;2023-04-27T10:50:41;99504.03;;;18.14;36.96
23953;BME280;12163;49.316;6.092;2023-04-27T10:53:10;99503.34;;;18.17;37.00
23953;BME280;12163;49.316;6.092;2023-04-27T10:55:36;99497.53;;;18.27;37.30
23953;BME280;12163;49.316;6.092;2023-04-27T10:58:03;99493.56;;;18.36;37.10
23953;BME280;12163;49.316;6.092;2023-04-27T11:00:34;99477.78;;;18.54;36.65
23953;BME280;12163;49.316;6.092;2023-04-27T11:03:13;99489.84;;;18.53;36.11
23953;BME280;12163;49.316;6.092;2023-04-27T11:05:45;99488.94;;;18.61;36.33
23953;BME280;12163;49.316;6.092;2023-04-27T11:08:14;99492.94;;;18.63;36.28
23953;BME280;12163;49.316;6.092;2023-04-27T11:10:48;99489.75;;;18.73;35.59
23953;BME280;12163;49.316;6.092;2023-04-27T11:13:21;99488.16;;;18.72;34.88
23953;BME280;12163;49.316;6.092;2023-04-27T11:15:57;99488.84;;;18.69;35.17
23953;BME280;12163;49.316;6.092;2023-04-27T11:18:26;99487.84;;;18.85;35.52
23953;BME280;12163;49.316;6.092;2023-04-27T11:23:33;99475.66;;;18.95;35.64
23953;BME280;12163;49.316;6.092;2023-04-27T11:29:00;99461.44;;;19.13;34.61
23953;BME280;12163;49.316;6.092;2023-04-27T11:31:39;99455.63;;;19.27;35.20
23953;BME280;12163;49.316;6.092;2023-04-27T11:34:07;99459.25;;;19.43;34.79
23953;BME280;12163;49.316;6.092;2023-04-27T11:36:34;99459.09;;;19.63;34.96
23953;BME280;12163;49.316;6.092;2023-04-27T11:39:02;99457.22;;;19.79;34.44
23953;BME280;12163;49.316;6.092;2023-04-27T11:41:35;99449.84;;;19.95;33.42
23953;BME280;12163;49.316;6.092;2023-04-27T11:44:07;99442.31;;;20.04;33.83
23953;BME280;12163;49.316;6.092;2023-04-27T11:46:35;99435.63;;;20.17;34.47
23953;BME280;12163;49.316;6.092;2023-04-27T11:49:06;99447.16;;;20.38;33.95
23953;BME280;12163;49.316;6.092;2023-04-27T11:51:34;99434.69;;;20.56;33.14
23953;BME280;12163;49.316;6.092;2023-04-27T11:54:06;99439.91;;;20.61;33.72
23953;BME280;12163;49.316;6.092;2023-04-27T11:56:37;99431.44;;;20.66;33.00
23953;BME280;12163;49.316;6.092;2023-04-27T11:59:04;99427.91;;;20.50;33.12
23953;BME280;12163;49.316;6.092;2023-04-27T12:01:32;99427.34;;;20.29;34.05
23953;BME280;12163;49.316;6.092;2023-04-27T12:04:03;99430.22;;;20.05;33.56
23953;BME280;12163;49.316;6.092;2023-04-27T12:06:30;99443.69;;;19.98;34.39
23953;BME280;12163;49.316;6.092;2023-04-27T12:08:59;99429.06;;;20.06;35.22
23953;BME280;12163;49.316;6.092;2023-04-27T12:11:26;99432.81;;;20.29;35.04
23953;BME280;12163;49.316;6.092;2023-04-27T12:13:56;99424.00;;;20.36;34.10
23953;BME280;12163;49.316;6.092;2023-04-27T12:16:22;99414.69;;;20.25;34.68
23953;BME280;12163;49.316;6.092;2023-04-27T12:18:49;99408.78;;;20.38;35.12
23953;BME280;12163;49.316;6.092;2023-04-27T12:21:16;99411.97;;;20.71;34.60
23953;BME280;12163;49.316;6.092;2023-04-27T12:23:43;99418.00;;;20.92;34.11
23953;BME280;12163;49.316;6.092;2023-04-27T12:26:10;99416.59;;;20.98;33.38
23953;BME280;12163;49.316;6.092;2023-04-27T12:28:40;99407.31;;;20.87;33.74
23953;BME280;12163;49.316;6.092;2023-04-27T12:31:07;99412.13;;;20.78;33.62
23953;BME280;12163;49.316;6.092;2023-04-27T12:33:34;99422.88;;;20.83;33.90
23953;BME280;12163;49.316;6.092;2023-04-27T12:36:00;99418.44;;;20.78;33.20
23953;BME280;12163;49.316;6.092;2023-04-27T12:38:27;99414.91;;;20.62;33.41
23953;BME280;12163;49.316;6.092;2023-04-27T12:40:54;99409.50;;;20.66;33.81
23953;BME280;12163;49.316;6.092;2023-04-27T12:43:21;99413.25;;;20.89;34.26
23953;BME280;12163;49.316;6.092;2023-04-27T12:45:48;99416.19;;;21.15;34.20
23953;BME280;12163;49.316;6.092;2023-04-27T12:48:14;99407.91;;;21.30;33.74
23953;BME280;12163;49.316;6.092;2023-04-27T12:50:43;99415.09;;;21.35;33.62
23953;BME280;12163;49.316;6.092;2023-04-27T12:53:09;99410.19;;;21.44;33.67
23953;BME280;12163;49.316;6.092;2023-04-27T12:55:36;99409.88;;;21.49;33.49
23953;BME280;12163;49.316;6.092;2023-04-27T12:58:03;99413.97;;;21.55;33.60
23953;BME280;12163;49.316;6.092;2023-04-27T13:00:30;99413.06;;;21.51;34.01
23953;BME280;12163;49.316;6.092;2023-04-27T13:02:57;99413.41;;;21.30;33.93
23953;BME280;12163;49.316;6.092;2023-04-27T13:05:24;99413.59;;;21.22;34.14
23953;BME280;12163;49.316;6.092;2023-04-27T13:07:51;99411.72;;;21.26;34.02
23953;BME280;12163;49.316;6.092;2023-04-27T13:10:18;99412.28;;;21.50;33.78
23953;BME280;12163;49.316;6.092;2023-04-27T13:12:45;99412.25;;;21.66;33.66
23953;BME280;12163;49.316;6.092;2023-04-27T13:15:11;99400.63;;;21.72;33.57
23953;BME280;12163;49.316;6.092;2023-04-27T13:17:38;99404.88;;;21.70;33.73
23953;BME280;12163;49.316;6.092;2023-04-27T13:20:07;99408.00;;;21.68;34.30